Clarkedale, Arkansas
Current Conditions -  °F | °C
As of 2:53 PM on Thursday 23 Oct 2014 (Local Time) from KAWM Reporting Station
Clear Clear  
Wind Chill: 62°   Ceiling: Unl
Heat Index: 62°   Visibility: 10mi
Dew Point: 45°   Wind: 6mph
Humidity: 53%   Direction: 320°NW
Pressure: 30.13"   Gusts: NA
Location:  35.31°N, 90.24°W
Report Text: KAWM 231953Z AUTO 32005KT 10SM CLR 17/07 A3013 RMK AO2 SLP202 T01670072
Loading
Personal Weather Stations






























Interactive Weather Map
Tropical Storm Tracking
New forecast layout! Learn more

10-Day Weather Forecast

Advertisements
Track Severe Weather on mobile